createdAt,value
2023-03-11T00:01:53.511Z,100841.81
2023-03-11T00:06:57.376Z,100840.88
2023-03-11T00:12:02.740Z,100857.44
2023-03-11T00:17:06.425Z,100843.03
2023-03-11T00:22:10.262Z,100843.72
2023-03-11T00:27:15.544Z,100855.59
2023-03-11T00:32:19.431Z,100859.38
2023-03-11T00:37:23.178Z,100854.94
2023-03-11T00:42:28.477Z,100844.63
2023-03-11T00:47:32.197Z,100852.22
2023-03-11T00:52:35.898Z,100853.94
2023-03-11T00:57:42.175Z,100850.78
2023-03-11T01:02:45.942Z,100865.66
2023-03-11T01:07:49.869Z,100863.28
2023-03-11T01:12:55.369Z,100861.75
2023-03-11T01:17:59.047Z,100861.50
2023-03-11T01:23:02.703Z,100853.72
2023-03-11T01:28:09.002Z,100856.38
2023-03-11T01:33:16.590Z,100862.78
2023-03-11T01:38:20.431Z,100874.72
2023-03-11T01:43:51.200Z,100878.47
2023-03-11T01:48:56.554Z,100875.53
2023-03-11T01:54:05.977Z,100871.63
2023-03-11T01:59:15.125Z,100859.00
2023-03-11T02:04:20.706Z,100877.09
2023-03-11T02:09:25.208Z,100873.63
2023-03-11T02:14:31.980Z,100864.44
2023-03-11T02:19:49.496Z,100871.97
2023-03-11T02:25:02.350Z,100888.66
2023-03-11T02:30:10.486Z,100876.78
2023-03-11T02:35:14.239Z,100875.47
2023-03-11T02:40:42.953Z,100904.63
2023-03-11T02:45:49.380Z,100893.56
2023-03-11T02:50:54.129Z,100906.19
2023-03-11T02:55:57.745Z,100897.69
2023-03-11T03:01:03.134Z,100897.78
2023-03-11T03:06:07.266Z,100911.41
2023-03-11T03:11:10.944Z,100905.78
2023-03-11T03:16:16.336Z,100922.19
2023-03-11T03:21:20.009Z,100924.38
2023-03-11T03:26:23.647Z,100913.56
2023-03-11T03:31:29.109Z,100913.22
2023-03-11T03:36:32.824Z,100922.81
2023-03-11T03:41:37.124Z,100921.16
2023-03-11T03:46:42.426Z,100909.78
2023-03-11T03:51:46.086Z,100914.97
2023-03-11T03:56:49.775Z,100930.75
2023-03-11T04:01:55.149Z,100931.16
2023-03-11T04:06:58.838Z,100955.16
2023-03-11T04:12:02.492Z,100965.53
2023-03-11T04:17:09.793Z,100956.06
2023-03-11T04:22:13.556Z,100931.50
2023-03-11T04:27:17.261Z,100965.72
2023-03-11T04:32:22.613Z,100961.28
2023-03-11T04:37:29.603Z,100966.44
2023-03-11T04:42:33.277Z,100976.03
2023-03-11T04:47:38.568Z,100989.84
2023-03-11T04:52:42.238Z,100990.72
2023-03-11T04:57:45.932Z,100991.50
2023-03-11T05:02:51.433Z,100997.78
2023-03-11T05:07:55.094Z,101004.00
2023-03-11T05:12:59.454Z,101007.31
2023-03-11T05:18:05.054Z,101016.88
2023-03-11T05:23:08.712Z,101023.72
2023-03-11T05:28:12.457Z,101026.44
2023-03-11T05:33:17.762Z,101030.75
2023-03-11T05:38:21.393Z,101035.09
2023-03-11T05:43:25.021Z,101025.59
2023-03-11T05:48:30.328Z,101027.19
2023-03-11T05:53:33.984Z,101024.59
2023-03-11T05:58:37.622Z,101028.22
2023-03-11T06:03:43.326Z,101045.69
2023-03-11T06:08:46.977Z,101045.66
2023-03-11T06:13:54.318Z,101035.44
2023-03-11T06:18:59.642Z,101038.00
2023-03-11T06:24:03.510Z,101053.91
2023-03-11T06:29:13.218Z,101052.22
2023-03-11T06:34:18.628Z,101066.34
2023-03-11T06:39:22.272Z,101066.50
2023-03-11T06:44:25.913Z,101071.84
2023-03-11T06:49:31.215Z,101088.44
2023-03-11T06:54:34.910Z,101085.00
2023-03-11T06:59:38.960Z,101096.41
2023-03-11T07:04:49.681Z,101093.19
2023-03-11T07:09:56.374Z,101098.16
2023-03-11T07:15:00.909Z,101091.41
2023-03-11T07:20:07.722Z,101095.75
2023-03-11T07:25:11.484Z,101092.25
2023-03-11T07:30:15.890Z,101096.84
2023-03-11T07:35:21.190Z,101100.31
2023-03-11T07:40:24.856Z,101116.94
2023-03-11T07:45:28.551Z,101124.88
2023-03-11T07:50:33.930Z,101119.84
2023-03-11T07:55:37.639Z,101128.66
2023-03-11T08:00:41.266Z,101130.41
2023-03-11T08:05:47.238Z,101133.84
2023-03-11T08:10:50.873Z,101125.25
2023-03-11T08:15:54.563Z,101126.16
2023-03-11T08:21:00.126Z,101121.91
2023-03-11T08:26:05.021Z,101122.69
2023-03-11T08:31:13.991Z,101119.44
2023-03-11T08:36:20.908Z,101122.06
2023-03-11T08:41:24.725Z,101128.13
2023-03-11T08:46:30.775Z,101123.91
2023-03-11T08:51:36.016Z,101117.97
2023-03-11T08:56:39.770Z,101113.66
2023-03-11T09:01:43.442Z,101115.34
2023-03-11T09:06:48.743Z,101122.38
2023-03-11T09:11:52.377Z,101120.69
2023-03-11T09:16:56.026Z,101123.28
2023-03-11T09:22:03.699Z,101112.88
2023-03-11T09:27:07.416Z,101118.06
2023-03-11T09:32:14.004Z,101105.06
2023-03-11T09:37:20.098Z,101105.09
2023-03-11T09:42:34.620Z,101111.19
2023-03-11T09:47:48.816Z,101119.81
2023-03-11T09:53:03.512Z,101119.81
2023-03-11T09:58:16.723Z,101118.25
2023-03-11T10:03:33.701Z,101129.44
2023-03-11T10:08:45.088Z,101128.59
2023-03-11T10:14:01.710Z,101128.56
2023-03-11T10:19:09.918Z,101129.41
2023-03-11T10:24:37.036Z,101126.78
2023-03-11T10:29:48.679Z,101117.31
2023-03-11T10:34:56.626Z,101106.91
2023-03-11T10:40:15.655Z,101097.41
2023-03-11T10:45:20.048Z,101095.66
2023-03-11T10:50:23.715Z,101096.50
2023-03-11T10:55:29.061Z,101080.06
2023-03-11T11:00:32.960Z,101088.78
2023-03-11T11:05:36.595Z,101084.44
2023-03-11T11:10:52.858Z,101066.31
2023-03-11T11:16:01.439Z,101084.50
2023-03-11T11:21:08.682Z,101077.66
2023-03-11T11:26:20.248Z,101067.28
2023-03-11T11:31:27.466Z,101071.56
2023-03-11T11:36:33.200Z,101075.94
2023-03-11T11:41:38.738Z,101070.78
2023-03-11T11:46:46.967Z,101073.38
2023-03-11T11:51:55.897Z,101080.34
2023-03-11T11:57:11.206Z,101061.31
2023-03-11T12:02:32.924Z,101051.81
2023-03-11T12:07:48.616Z,101062.28
2023-03-11T12:13:18.360Z,101063.16
2023-03-11T12:18:28.999Z,101064.03
2023-03-11T12:23:42.924Z,101065.78
2023-03-11T12:28:53.620Z,101071.00
2023-03-11T12:34:00.182Z,101069.25
2023-03-11T12:39:05.867Z,101076.19
2023-03-11T12:44:28.435Z,101076.19
2023-03-11T12:49:33.093Z,101071.88
2023-03-11T12:54:37.509Z,101076.22
2023-03-11T13:00:08.377Z,101093.50
2023-03-11T13:05:21.487Z,101099.56
2023-03-11T13:10:40.109Z,101096.13
2023-03-11T13:15:45.515Z,101098.69
2023-03-11T13:20:57.323Z,101093.50
2023-03-11T13:26:34.920Z,101090.94
2023-03-11T13:31:51.127Z,101100.28
2023-03-11T13:37:11.949Z,101093.72
2023-03-11T13:42:27.305Z,101101.00
2023-03-11T13:47:34.389Z,101108.09
2023-03-11T13:52:44.393Z,101108.13
2023-03-11T13:57:52.338Z,101109.00
2023-03-11T14:02:59.427Z,101109.00
2023-03-11T14:08:22.299Z,101102.91
2023-03-11T14:13:27.257Z,101103.81
2023-03-11T14:18:37.772Z,101109.84
2023-03-11T14:23:45.920Z,101121.97
2023-03-11T14:28:52.939Z,101109.84
2023-03-11T14:33:59.928Z,101124.56
2023-03-11T14:39:03.592Z,101112.41
2023-03-11T14:44:09.064Z,101124.53
2023-03-11T14:49:22.129Z,101122.75
2023-03-11T14:54:30.013Z,101124.50
2023-03-11T14:59:35.771Z,101125.31
2023-03-11T15:04:43.058Z,101127.03
2023-03-11T15:09:46.930Z,101122.66
2023-03-11T15:14:52.650Z,101123.44
2023-03-11T15:19:58.058Z,101128.69
2023-03-11T15:25:02.966Z,101142.44
2023-03-11T15:30:20.470Z,101138.88
2023-03-11T15:35:27.153Z,101137.94
2023-03-11T15:40:44.554Z,101158.69
2023-03-11T15:45:49.206Z,101161.16
2023-03-11T15:50:55.658Z,101167.88
2023-03-11T15:56:07.236Z,101166.00
2023-03-11T16:01:11.664Z,101161.41
2023-03-11T16:06:16.958Z,101166.13
2023-03-11T16:11:20.620Z,101152.19
2023-03-11T16:16:24.267Z,101158.16
2023-03-11T16:21:36.368Z,101152.81
2023-03-11T16:26:40.033Z,101167.41
2023-03-11T16:31:43.665Z,101156.97
2023-03-11T16:36:49.723Z,101165.50
2023-03-11T16:41:53.390Z,101161.72
2023-03-11T16:46:57.077Z,101155.44
2023-03-11T16:52:03.425Z,101163.00
2023-03-11T16:57:07.117Z,101172.63
2023-03-11T17:02:11.773Z,101169.81
2023-03-11T17:07:17.208Z,101159.56
2023-03-11T17:12:20.924Z,101168.59
2023-03-11T17:17:24.983Z,101169.31
2023-03-11T17:22:30.339Z,101167.28
2023-03-11T17:27:33.992Z,101167.22
2023-03-11T17:32:37.686Z,101172.00
2023-03-11T17:37:43.005Z,101170.09
2023-03-11T17:42:46.625Z,101171.06
2023-03-11T17:47:50.281Z,101175.53
2023-03-11T17:52:55.607Z,101169.78
2023-03-11T17:57:59.344Z,101173.38
2023-03-11T18:03:03.030Z,101201.22
2023-03-11T18:08:08.410Z,101266.84
2023-03-11T18:13:12.096Z,101216.47
2023-03-11T18:18:15.717Z,101209.59
2023-03-11T18:23:21.088Z,101219.00
2023-03-11T18:28:24.712Z,101211.72
2023-03-11T18:33:28.345Z,101215.06
2023-03-11T18:38:33.642Z,101197.97
2023-03-11T18:43:37.595Z,101211.19
2023-03-11T18:48:44.787Z,101222.56
2023-03-11T18:53:50.078Z,101229.63
2023-03-11T18:58:53.696Z,101227.31
2023-03-11T19:03:58.619Z,101208.03
2023-03-11T19:09:03.957Z,101231.53
2023-03-11T19:14:07.600Z,101223.69
2023-03-11T19:19:12.052Z,101213.41
2023-03-11T19:24:17.603Z,101210.63
2023-03-11T19:29:21.277Z,101197.31
2023-03-11T19:34:24.930Z,101184.44
2023-03-11T19:39:30.254Z,101174.91
2023-03-11T19:44:33.930Z,101183.00
2023-03-11T19:49:37.632Z,101177.94
2023-03-11T19:54:43.100Z,101180.41
2023-03-11T19:59:46.894Z,101178.00
2023-03-11T20:04:50.625Z,101174.69
2023-03-11T20:09:55.994Z,101167.94
2023-03-11T20:14:59.856Z,101155.47
2023-03-11T20:20:03.611Z,101171.53
2023-03-11T20:25:09.989Z,101169.44
2023-03-11T20:30:14.818Z,101167.00
2023-03-11T20:35:18.801Z,101153.88
2023-03-11T20:40:24.228Z,101144.47
2023-03-11T20:45:28.182Z,101152.59
2023-03-11T20:50:31.903Z,101150.09
2023-03-11T20:55:39.409Z,101148.13
2023-03-11T21:00:43.160Z,101138.34
2023-03-11T21:05:46.916Z,101121.53
2023-03-11T21:10:52.202Z,101127.75
2023-03-11T21:15:55.983Z,101139.84
2023-03-11T21:20:59.712Z,101140.72
2023-03-11T21:26:06.154Z,101130.00
2023-03-11T21:31:11.425Z,101120.16
2023-03-11T21:36:16.647Z,101125.06
2023-03-11T21:41:23.758Z,101137.94
2023-03-11T21:46:30.105Z,101134.47
2023-03-11T21:51:33.905Z,101137.25
2023-03-11T21:56:39.299Z,101136.72
2023-03-11T22:01:43.184Z,101135.88
2023-03-11T22:06:46.875Z,101125.56
2023-03-11T22:11:52.264Z,101127.06
2023-03-11T22:16:56.188Z,101131.38
2023-03-11T22:21:59.905Z,101134.19
2023-03-11T22:27:05.342Z,101129.19
2023-03-11T22:32:08.960Z,101132.28
2023-03-11T22:37:12.644Z,101124.38
2023-03-11T22:42:18.011Z,101123.75
2023-03-11T22:47:21.686Z,101115.69
2023-03-11T22:52:25.427Z,101113.72
2023-03-11T22:57:30.759Z,101110.44
2023-03-11T23:02:34.415Z,101123.44
2023-03-11T23:07:38.068Z,101119.19
2023-03-11T23:12:43.474Z,101113.34
2023-03-11T23:17:47.256Z,101106.34
2023-03-11T23:22:50.942Z,101106.50
2023-03-11T23:27:56.269Z,101119.44
2023-03-11T23:33:00.056Z,101128.22
2023-03-11T23:38:03.786Z,101125.09
2023-03-11T23:43:09.134Z,101138.19
2023-03-11T23:48:12.838Z,101146.94
2023-03-11T23:53:17.673Z,101147.75
2023-03-11T23:58:23.505Z,101141.31
